sensor_id;sensor_type;location;lat;lon;timestamp;pressure;altitude;pressure_sealevel;temperature;humidity
72055;BME280;59936;51.490;5.436;2022-10-16T00:01:49;100739.03;;;11.51;100.00
72055;BME280;59936;51.490;5.436;2022-10-16T00:06:50;100743.38;;;11.50;100.00
72055;BME280;59936;51.490;5.436;2022-10-16T00:11:53;100732.47;;;11.42;100.00
72055;BME280;59936;51.490;5.436;2022-10-16T00:16:55;100732.53;;;11.40;100.00
72055;BME280;59936;51.490;5.436;2022-10-16T00:21:57;100744.38;;;11.48;100.00
72055;BME280;59936;51.490;5.436;2022-10-16T00:27:00;100740.16;;;11.45;100.00
72055;BME280;59936;51.490;5.436;2022-10-16T00:32:01;100735.38;;;11.36;100.00
72055;BME280;59936;51.490;5.436;2022-10-16T00:37:03;100731.28;;;11.30;100.00
72055;BME280;59936;51.490;5.436;2022-10-16T00:42:11;100743.00;;;11.21;100.00
72055;BME280;59936;51.490;5.436;2022-10-16T00:47:21;100752.13;;;11.31;100.00
72055;BME280;59936;51.490;5.436;2022-10-16T00:52:27;100746.25;;;11.26;100.00
72055;BME280;59936;51.490;5.436;2022-10-16T00:57:30;100754.66;;;11.14;100.00
72055;BME280;59936;51.490;5.436;2022-10-16T01:02:32;100742.53;;;11.13;100.00
72055;BME280;59936;51.490;5.436;2022-10-16T01:07:41;100741.06;;;11.07;100.00
72055;BME280;59936;51.490;5.436;2022-10-16T01:12:55;100733.28;;;11.05;100.00
72055;BME280;59936;51.490;5.436;2022-10-16T01:18:06;100735.34;;;10.99;100.00
72055;BME280;59936;51.490;5.436;2022-10-16T01:23:21;100736.47;;;10.93;100.00
72055;BME280;59936;51.490;5.436;2022-10-16T01:28:41;100753.19;;;10.89;100.00
72055;BME280;59936;51.490;5.436;2022-10-16T01:33:54;100749.88;;;10.85;100.00
72055;BME280;59936;51.490;5.436;2022-10-16T01:39:02;100750.00;;;11.01;100.00
72055;BME280;59936;51.490;5.436;2022-10-16T01:44:08;100749.00;;;11.04;100.00
72055;BME280;59936;51.490;5.436;2022-10-16T01:49:13;100739.91;;;11.13;100.00
72055;BME280;59936;51.490;5.436;2022-10-16T01:54:19;100737.31;;;11.13;100.00
72055;BME280;59936;51.490;5.436;2022-10-16T01:59:25;100750.09;;;11.19;100.00
72055;BME280;59936;51.490;5.436;2022-10-16T02:04:33;100750.09;;;11.19;100.00
72055;BME280;59936;51.490;5.436;2022-10-16T02:09:38;100747.03;;;11.28;100.00
72055;BME280;59936;51.490;5.436;2022-10-16T02:14:42;100745.19;;;11.30;100.00
72055;BME280;59936;51.490;5.436;2022-10-16T02:19:44;100745.41;;;11.26;100.00
72055;BME280;59936;51.490;5.436;2022-10-16T02:24:51;100754.59;;;11.15;100.00
72055;BME280;59936;51.490;5.436;2022-10-16T02:30:04;100754.16;;;11.05;100.00
72055;BME280;59936;51.490;5.436;2022-10-16T02:35:10;100741.31;;;11.01;100.00
72055;BME280;59936;51.490;5.436;2022-10-16T02:40:14;100754.16;;;11.05;100.00
72055;BME280;59936;51.490;5.436;2022-10-16T02:45:18;100756.91;;;11.02;100.00
72055;BME280;59936;51.490;5.436;2022-10-16T02:50:20;100746.72;;;10.98;100.00
72055;BME280;59936;51.490;5.436;2022-10-16T02:55:22;100738.16;;;10.94;100.00
72055;BME280;59936;51.490;5.436;2022-10-16T03:00:25;100742.19;;;10.82;100.00
72055;BME280;59936;51.490;5.436;2022-10-16T03:05:28;100758.84;;;10.79;100.00
72055;BME280;59936;51.490;5.436;2022-10-16T03:10:29;100763.88;;;10.82;100.00
72055;BME280;59936;51.490;5.436;2022-10-16T03:15:32;100750.50;;;10.90;100.00
72055;BME280;59936;51.490;5.436;2022-10-16T03:20:34;100770.53;;;10.90;100.00
72055;BME280;59936;51.490;5.436;2022-10-16T03:25:36;100763.06;;;11.01;100.00
72055;BME280;59936;51.490;5.436;2022-10-16T03:30:39;100782.66;;;10.91;100.00
72055;BME280;59936;51.490;5.436;2022-10-16T03:35:40;100786.34;;;10.87;100.00
72055;BME280;59936;51.490;5.436;2022-10-16T03:40:42;100780.41;;;10.83;100.00
72055;BME280;59936;51.490;5.436;2022-10-16T03:45:46;100788.31;;;10.81;100.00
72055;BME280;59936;51.490;5.436;2022-10-16T03:50:48;100797.88;;;10.81;100.00
72055;BME280;59936;51.490;5.436;2022-10-16T03:55:50;100803.91;;;10.83;100.00
72055;BME280;59936;51.490;5.436;2022-10-16T04:00:53;100801.94;;;10.88;100.00
72055;BME280;59936;51.490;5.436;2022-10-16T04:05:55;100798.19;;;10.94;100.00
72055;BME280;59936;51.490;5.436;2022-10-16T04:10:57;100797.38;;;10.93;100.00
72055;BME280;59936;51.490;5.436;2022-10-16T04:16:00;100806.75;;;10.98;100.00
72055;BME280;59936;51.490;5.436;2022-10-16T04:21:03;100815.09;;;11.06;100.00
72055;BME280;59936;51.490;5.436;2022-10-16T04:26:05;100810.50;;;11.11;100.00
72055;BME280;59936;51.490;5.436;2022-10-16T04:31:08;100809.63;;;11.11;100.00
72055;BME280;59936;51.490;5.436;2022-10-16T04:36:10;100805.06;;;11.16;100.00
72055;BME280;59936;51.490;5.436;2022-10-16T04:41:11;100803.72;;;11.26;100.00
72055;BME280;59936;51.490;5.436;2022-10-16T04:46:14;100826.59;;;11.21;100.00
72055;BME280;59936;51.490;5.436;2022-10-16T04:51:16;100831.06;;;11.19;100.00
72055;BME280;59936;51.490;5.436;2022-10-16T04:56:19;100834.00;;;11.11;100.00
72055;BME280;59936;51.490;5.436;2022-10-16T05:01:22;100842.22;;;11.23;100.00
72055;BME280;59936;51.490;5.436;2022-10-16T05:06:24;100842.56;;;11.15;100.00
72055;BME280;59936;51.490;5.436;2022-10-16T05:11:26;100868.31;;;11.03;100.00
72055;BME280;59936;51.490;5.436;2022-10-16T05:16:29;100869.88;;;11.07;100.00
72055;BME280;59936;51.490;5.436;2022-10-16T05:21:31;100869.72;;;11.11;100.00
72055;BME280;59936;51.490;5.436;2022-10-16T05:26:33;100872.06;;;11.17;100.00
72055;BME280;59936;51.490;5.436;2022-10-16T05:31:36;100872.47;;;11.07;100.00
72055;BME280;59936;51.490;5.436;2022-10-16T05:36:37;100877.19;;;10.99;100.00
72055;BME280;59936;51.490;5.436;2022-10-16T05:41:39;100880.69;;;10.98;100.00
72055;BME280;59936;51.490;5.436;2022-10-16T05:46:46;100893.69;;;11.00;100.00
72055;BME280;59936;51.490;5.436;2022-10-16T05:51:47;100909.44;;;10.98;100.00
72055;BME280;59936;51.490;5.436;2022-10-16T05:56:49;100921.59;;;10.99;100.00
72055;BME280;59936;51.490;5.436;2022-10-16T06:01:52;100925.75;;;11.03;100.00
72055;BME280;59936;51.490;5.436;2022-10-16T06:06:54;100923.28;;;11.00;100.00
72055;BME280;59936;51.490;5.436;2022-10-16T06:12:01;100937.03;;;11.04;100.00
72055;BME280;59936;51.490;5.436;2022-10-16T06:17:05;100938.09;;;11.00;100.00
72055;BME280;59936;51.490;5.436;2022-10-16T06:22:06;100957.41;;;10.95;100.00
72055;BME280;59936;51.490;5.436;2022-10-16T06:27:08;100959.97;;;10.97;100.00
72055;BME280;59936;51.490;5.436;2022-10-16T06:32:13;100969.63;;;10.95;100.00
72055;BME280;59936;51.490;5.436;2022-10-16T06:37:14;100981.50;;;11.02;100.00
72055;BME280;59936;51.490;5.436;2022-10-16T06:42:18;100988.03;;;10.92;100.00
72055;BME280;59936;51.490;5.436;2022-10-16T06:47:21;100998.09;;;11.01;100.00
72055;BME280;59936;51.490;5.436;2022-10-16T06:52:22;101008.28;;;11.07;100.00
72055;BME280;59936;51.490;5.436;2022-10-16T06:57:24;101014.03;;;11.16;100.00
72055;BME280;59936;51.490;5.436;2022-10-16T07:02:28;101023.31;;;11.23;100.00
72055;BME280;59936;51.490;5.436;2022-10-16T07:07:30;101028.72;;;11.39;100.00
72055;BME280;59936;51.490;5.436;2022-10-16T07:12:35;101036.09;;;11.50;100.00
72055;BME280;59936;51.490;5.436;2022-10-16T07:17:38;101040.13;;;11.78;100.00
72055;BME280;59936;51.490;5.436;2022-10-16T07:22:39;101055.13;;;12.71;100.00
72055;BME280;59936;51.490;5.436;2022-10-16T07:27:41;101055.00;;;13.80;100.00
72055;BME280;59936;51.490;5.436;2022-10-16T07:32:44;101061.72;;;14.02;100.00
72055;BME280;59936;51.490;5.436;2022-10-16T07:37:46;101075.66;;;15.15;100.00
72055;BME280;59936;51.490;5.436;2022-10-16T07:42:47;101078.75;;;15.53;100.00
72055;BME280;59936;51.490;5.436;2022-10-16T07:47:50;101107.91;;;15.03;100.00
72055;BME280;59936;51.490;5.436;2022-10-16T07:52:52;101111.38;;;15.79;100.00
72055;BME280;59936;51.490;5.436;2022-10-16T07:57:54;101125.34;;;15.04;100.00
72055;BME280;59936;51.490;5.436;2022-10-16T08:02:58;101120.19;;;15.02;100.00
72055;BME280;59936;51.490;5.436;2022-10-16T08:08:00;101126.66;;;16.18;100.00
72055;BME280;59936;51.490;5.436;2022-10-16T08:13:03;101130.44;;;15.83;99.09
72055;BME280;59936;51.490;5.436;2022-10-16T08:18:06;101144.31;;;16.30;96.96
72055;BME280;59936;51.490;5.436;2022-10-16T08:23:11;101155.31;;;16.22;99.14
72055;BME280;59936;51.490;5.436;2022-10-16T08:28:14;101151.94;;;16.20;100.00
72055;BME280;59936;51.490;5.436;2022-10-16T08:33:18;101163.88;;;16.26;98.19
72055;BME280;59936;51.490;5.436;2022-10-16T08:38:20;101167.53;;;16.24;99.45
72055;BME280;59936;51.490;5.436;2022-10-16T08:43:35;101175.34;;;16.82;91.93
72055;BME280;59936;51.490;5.436;2022-10-16T08:48:55;101182.00;;;17.30;96.48
72055;BME280;59936;51.490;5.436;2022-10-16T08:54:03;101199.31;;;17.87;91.56
72055;BME280;59936;51.490;5.436;2022-10-16T08:59:09;101191.53;;;17.32;88.06
72055;BME280;59936;51.490;5.436;2022-10-16T09:04:46;101193.41;;;18.62;82.75
72055;BME280;59936;51.490;5.436;2022-10-16T09:10:05;101207.91;;;17.91;86.22
72055;BME280;59936;51.490;5.436;2022-10-16T09:15:24;101208.81;;;17.23;88.50
72055;BME280;59936;51.490;5.436;2022-10-16T09:20:36;101216.69;;;18.31;84.57
72055;BME280;59936;51.490;5.436;2022-10-16T09:25:46;101220.66;;;17.71;94.67
72055;BME280;59936;51.490;5.436;2022-10-16T09:30:49;101219.13;;;18.47;84.80
72055;BME280;59936;51.490;5.436;2022-10-16T09:35:53;101230.19;;;18.65;82.75
72055;BME280;59936;51.490;5.436;2022-10-16T09:40:59;101234.59;;;19.64;87.43
72055;BME280;59936;51.490;5.436;2022-10-16T09:46:04;101241.94;;;19.72;79.34
72055;BME280;59936;51.490;5.436;2022-10-16T09:51:18;101227.81;;;17.69;85.29
72055;BME280;59936;51.490;5.436;2022-10-16T09:56:24;101238.44;;;18.98;81.12
72055;BME280;59936;51.490;5.436;2022-10-16T10:01:31;101239.63;;;19.67;83.22
72055;BME280;59936;51.490;5.436;2022-10-16T10:06:44;101242.88;;;18.60;83.31
72055;BME280;59936;51.490;5.436;2022-10-16T10:11:51;101241.94;;;18.48;87.57
72055;BME280;59936;51.490;5.436;2022-10-16T10:17:09;101252.50;;;17.68;85.38
72055;BME280;59936;51.490;5.436;2022-10-16T10:22:25;101253.63;;;17.23;84.35
72055;BME280;59936;51.490;5.436;2022-10-16T10:27:36;101255.41;;;17.91;81.98
72055;BME280;59936;51.490;5.436;2022-10-16T10:32:48;101263.00;;;17.42;80.81
72055;BME280;59936;51.490;5.436;2022-10-16T10:38:09;101268.03;;;18.52;76.42
72055;BME280;59936;51.490;5.436;2022-10-16T10:43:39;101266.03;;;20.04;73.19
72055;BME280;59936;51.490;5.436;2022-10-16T10:49:08;101275.47;;;19.11;72.13
72055;BME280;59936;51.490;5.436;2022-10-16T10:54:51;101275.34;;;20.44;69.16
72055;BME280;59936;51.490;5.436;2022-10-16T11:00:13;101272.97;;;22.49;62.98
72055;BME280;59936;51.490;5.436;2022-10-16T11:05:40;101283.50;;;19.82;68.22
72055;BME280;59936;51.490;5.436;2022-10-16T11:10:50;101276.19;;;20.45;69.03
72055;BME280;59936;51.490;5.436;2022-10-16T11:15:58;101285.34;;;19.58;67.41
72055;BME280;59936;51.490;5.436;2022-10-16T11:21:06;101288.81;;;20.30;67.20
72055;BME280;59936;51.490;5.436;2022-10-16T11:26:18;101278.84;;;19.00;67.80
72055;BME280;59936;51.490;5.436;2022-10-16T11:31:28;101291.03;;;17.71;74.53
72055;BME280;59936;51.490;5.436;2022-10-16T11:36:43;101291.13;;;17.56;76.35
72055;BME280;59936;51.490;5.436;2022-10-16T11:41:51;101299.44;;;17.50;74.78
72055;BME280;59936;51.490;5.436;2022-10-16T11:47:02;101296.03;;;19.56;68.41
72055;BME280;59936;51.490;5.436;2022-10-16T11:52:17;101295.66;;;19.49;71.09
72055;BME280;59936;51.490;5.436;2022-10-16T11:57:28;101306.00;;;19.52;68.16
72055;BME280;59936;51.490;5.436;2022-10-16T12:02:40;101296.47;;;18.36;68.69
72055;BME280;59936;51.490;5.436;2022-10-16T12:07:57;101294.53;;;19.27;65.32
72055;BME280;59936;51.490;5.436;2022-10-16T12:13:30;101291.91;;;19.76;64.13
72055;BME280;59936;51.490;5.436;2022-10-16T12:18:33;101307.03;;;18.10;70.37
72055;BME280;59936;51.490;5.436;2022-10-16T12:23:37;101319.94;;;17.87;73.92
72055;BME280;59936;51.490;5.436;2022-10-16T12:28:49;101311.16;;;18.14;72.47
72055;BME280;59936;51.490;5.436;2022-10-16T12:33:58;101309.19;;;19.20;66.12
72055;BME280;59936;51.490;5.436;2022-10-16T12:39:03;101305.13;;;19.27;69.80
72055;BME280;59936;51.490;5.436;2022-10-16T12:44:22;101304.72;;;19.94;65.78
72055;BME280;59936;51.490;5.436;2022-10-16T12:49:36;101301.44;;;19.54;64.81
72055;BME280;59936;51.490;5.436;2022-10-16T12:54:40;101310.22;;;20.15;65.02
72055;BME280;59936;51.490;5.436;2022-10-16T12:59:49;101301.44;;;19.79;63.62
72055;BME280;59936;51.490;5.436;2022-10-16T13:05:16;101296.97;;;19.30;66.00
72055;BME280;59936;51.490;5.436;2022-10-16T13:10:32;101292.19;;;19.60;66.82
72055;BME280;59936;51.490;5.436;2022-10-16T13:15:52;101300.06;;;18.22;69.72
72055;BME280;59936;51.490;5.436;2022-10-16T13:21:25;101299.13;;;19.25;67.06
72055;BME280;59936;51.490;5.436;2022-10-16T13:26:41;101307.25;;;19.35;67.10
72055;BME280;59936;51.490;5.436;2022-10-16T13:31:53;101317.81;;;18.59;71.08
72055;BME280;59936;51.490;5.436;2022-10-16T13:36:55;101318.03;;;18.56;69.09
72055;BME280;59936;51.490;5.436;2022-10-16T13:42:02;101325.53;;;18.62;72.56
72055;BME280;59936;51.490;5.436;2022-10-16T13:47:15;101324.38;;;18.27;72.52
72055;BME280;59936;51.490;5.436;2022-10-16T13:52:20;101327.84;;;17.87;72.37
72055;BME280;59936;51.490;5.436;2022-10-16T13:57:24;101331.22;;;17.89;75.13
72055;BME280;59936;51.490;5.436;2022-10-16T14:02:31;101331.84;;;17.80;75.96
72055;BME280;59936;51.490;5.436;2022-10-16T14:07:37;101346.66;;;17.95;76.41
72055;BME280;59936;51.490;5.436;2022-10-16T14:12:40;101336.69;;;17.73;75.58
72055;BME280;59936;51.490;5.436;2022-10-16T14:17:45;101340.00;;;17.62;76.98
72055;BME280;59936;51.490;5.436;2022-10-16T14:22:59;101323.31;;;17.05;77.93
72055;BME280;59936;51.490;5.436;2022-10-16T14:28:04;101324.38;;;17.17;80.94
72055;BME280;59936;51.490;5.436;2022-10-16T14:33:23;101338.09;;;17.36;77.72
72055;BME280;59936;51.490;5.436;2022-10-16T14:38:33;101315.19;;;17.37;78.24
72055;BME280;59936;51.490;5.436;2022-10-16T14:43:38;101308.41;;;17.33;78.63
72055;BME280;59936;51.490;5.436;2022-10-16T14:48:46;101318.94;;;17.75;77.52
72055;BME280;59936;51.490;5.436;2022-10-16T14:53:52;101328.63;;;17.47;78.53
72055;BME280;59936;51.490;5.436;2022-10-16T14:58:54;101320.78;;;17.60;81.38
72055;BME280;59936;51.490;5.436;2022-10-16T15:03:58;101300.13;;;17.39;79.46
72055;BME280;59936;51.490;5.436;2022-10-16T15:09:00;101310.09;;;17.34;80.81
72055;BME280;59936;51.490;5.436;2022-10-16T15:14:03;101307.34;;;17.22;82.35
72055;BME280;59936;51.490;5.436;2022-10-16T15:19:06;101307.53;;;17.19;84.85
72055;BME280;59936;51.490;5.436;2022-10-16T15:24:12;101308.28;;;16.92;85.79
72055;BME280;59936;51.490;5.436;2022-10-16T15:29:14;101313.53;;;16.78;83.23
72055;BME280;59936;51.490;5.436;2022-10-16T15:34:18;101314.88;;;16.85;83.64
72055;BME280;59936;51.490;5.436;2022-10-16T15:39:21;101308.53;;;16.44;87.45
72055;BME280;59936;51.490;5.436;2022-10-16T15:44:22;101300.91;;;16.25;89.81
72055;BME280;59936;51.490;5.436;2022-10-16T15:49:29;101310.22;;;16.00;91.44
72055;BME280;59936;51.490;5.436;2022-10-16T15:54:30;101326.53;;;16.06;90.54
72055;BME280;59936;51.490;5.436;2022-10-16T15:59:33;101314.31;;;16.20;92.08
72055;BME280;59936;51.490;5.436;2022-10-16T16:04:36;101304.91;;;15.85;93.20
72055;BME280;59936;51.490;5.436;2022-10-16T16:09:38;101309.75;;;15.61;93.28
72055;BME280;59936;51.490;5.436;2022-10-16T16:14:40;101295.09;;;15.40;95.85
72055;BME280;59936;51.490;5.436;2022-10-16T16:19:46;101311.06;;;15.37;99.87
72055;BME280;59936;51.490;5.436;2022-10-16T16:24:48;101293.25;;;15.10;99.98
72055;BME280;59936;51.490;5.436;2022-10-16T16:29:50;101305.84;;;14.87;99.25
72055;BME280;59936;51.490;5.436;2022-10-16T16:34:54;101297.69;;;14.58;100.00
72055;BME280;59936;51.490;5.436;2022-10-16T16:39:57;101294.50;;;14.51;100.00
72055;BME280;59936;51.490;5.436;2022-10-16T16:44:59;101310.69;;;14.44;100.00
72055;BME280;59936;51.490;5.436;2022-10-16T16:50:04;101309.13;;;14.39;100.00
72055;BME280;59936;51.490;5.436;2022-10-16T16:55:08;101332.31;;;14.31;100.00
72055;BME280;59936;51.490;5.436;2022-10-16T17:00:11;101327.50;;;14.22;100.00
72055;BME280;59936;51.490;5.436;2022-10-16T17:05:15;101332.94;;;14.19;100.00
72055;BME280;59936;51.490;5.436;2022-10-16T17:10:18;101327.69;;;14.19;100.00
72055;BME280;59936;51.490;5.436;2022-10-16T17:15:20;101325.97;;;14.18;100.00
72055;BME280;59936;51.490;5.436;2022-10-16T17:20:24;101322.72;;;14.12;100.00
72055;BME280;59936;51.490;5.436;2022-10-16T17:25:26;101317.78;;;14.06;100.00
72055;BME280;59936;51.490;5.436;2022-10-16T17:30:29;101326.13;;;13.97;100.00
72055;BME280;59936;51.490;5.436;2022-10-16T17:35:36;101304.50;;;13.92;100.00
72055;BME280;59936;51.490;5.436;2022-10-16T17:40:40;101321.75;;;13.78;100.00
72055;BME280;59936;51.490;5.436;2022-10-16T17:45:42;101330.34;;;13.62;100.00
72055;BME280;59936;51.490;5.436;2022-10-16T17:50:45;101336.41;;;13.64;100.00
72055;BME280;59936;51.490;5.436;2022-10-16T17:55:47;101329.66;;;13.59;100.00
72055;BME280;59936;51.490;5.436;2022-10-16T18:00:50;101342.72;;;13.60;100.00
72055;BME280;59936;51.490;5.436;2022-10-16T18:05:53;101339.16;;;13.61;100.00
72055;BME280;59936;51.490;5.436;2022-10-16T18:10:55;101373.81;;;13.68;100.00
72055;BME280;59936;51.490;5.436;2022-10-16T18:16:01;101440.16;;;14.09;100.00
72055;BME280;59936;51.490;5.436;2022-10-16T18:21:06;101443.38;;;14.51;100.00
72055;BME280;59936;51.490;5.436;2022-10-16T18:26:11;101428.44;;;14.34;100.00
72055;BME280;59936;51.490;5.436;2022-10-16T18:31:15;101420.59;;;13.77;100.00
72055;BME280;59936;51.490;5.436;2022-10-16T18:36:22;101430.94;;;13.61;100.00
72055;BME280;59936;51.490;5.436;2022-10-16T18:41:26;101441.06;;;13.50;100.00
72055;BME280;59936;51.490;5.436;2022-10-16T18:46:30;101433.78;;;13.36;100.00
72055;BME280;59936;51.490;5.436;2022-10-16T18:51:35;101414.25;;;13.24;100.00
72055;BME280;59936;51.490;5.436;2022-10-16T18:56:39;101386.44;;;13.20;100.00
72055;BME280;59936;51.490;5.436;2022-10-16T19:01:41;101391.97;;;13.13;100.00
72055;BME280;59936;51.490;5.436;2022-10-16T19:06:46;101393.66;;;13.14;100.00
72055;BME280;59936;51.490;5.436;2022-10-16T19:11:49;101401.41;;;13.18;100.00
72055;BME280;59936;51.490;5.436;2022-10-16T19:16:51;101403.69;;;13.05;100.00
72055;BME280;59936;51.490;5.436;2022-10-16T19:21:54;101407.19;;;13.05;100.00
72055;BME280;59936;51.490;5.436;2022-10-16T19:27:10;101405.06;;;13.13;100.00
72055;BME280;59936;51.490;5.436;2022-10-16T19:32:12;101408.00;;;13.06;100.00
72055;BME280;59936;51.490;5.436;2022-10-16T19:37:16;101409.94;;;13.02;100.00
72055;BME280;59936;51.490;5.436;2022-10-16T19:42:18;101413.41;;;13.03;100.00
72055;BME280;59936;51.490;5.436;2022-10-16T19:47:21;101428.34;;;13.00;100.00
72055;BME280;59936;51.490;5.436;2022-10-16T19:52:24;101414.75;;;13.11;100.00
72055;BME280;59936;51.490;5.436;2022-10-16T19:57:26;101413.84;;;12.92;100.00
72055;BME280;59936;51.490;5.436;2022-10-16T20:02:28;101420.81;;;12.93;100.00
72055;BME280;59936;51.490;5.436;2022-10-16T20:07:33;101410.78;;;13.03;100.00
72055;BME280;59936;51.490;5.436;2022-10-16T20:12:34;101394.69;;;12.91;100.00
72055;BME280;59936;51.490;5.436;2022-10-16T20:17:37;101402.69;;;12.88;100.00
72055;BME280;59936;51.490;5.436;2022-10-16T20:22:40;101387.16;;;12.83;100.00
72055;BME280;59936;51.490;5.436;2022-10-16T20:27:43;101401.88;;;12.86;100.00
72055;BME280;59936;51.490;5.436;2022-10-16T20:32:45;101402.47;;;12.72;100.00
72055;BME280;59936;51.490;5.436;2022-10-16T20:37:49;101405.44;;;12.64;100.00
72055;BME280;59936;51.490;5.436;2022-10-16T20:42:51;101404.84;;;12.57;100.00
72055;BME280;59936;51.490;5.436;2022-10-16T20:47:52;101413.00;;;12.49;100.00
72055;BME280;59936;51.490;5.436;2022-10-16T20:52:56;101398.53;;;12.41;100.00
72055;BME280;59936;51.490;5.436;2022-10-16T20:58:00;101390.13;;;12.32;100.00
72055;BME280;59936;51.490;5.436;2022-10-16T21:03:02;101391.56;;;12.19;100.00
72055;BME280;59936;51.490;5.436;2022-10-16T21:08:05;101369.78;;;12.18;100.00
72055;BME280;59936;51.490;5.436;2022-10-16T21:13:06;101368.59;;;12.03;100.00
72055;BME280;59936;51.490;5.436;2022-10-16T21:18:08;101375.38;;;11.87;100.00
72055;BME280;59936;51.490;5.436;2022-10-16T21:23:11;101369.44;;;11.81;100.00
72055;BME280;59936;51.490;5.436;2022-10-16T21:28:14;101372.44;;;11.72;100.00
72055;BME280;59936;51.490;5.436;2022-10-16T21:33:16;101356.97;;;11.66;100.00
72055;BME280;59936;51.490;5.436;2022-10-16T21:38:19;101366.66;;;11.64;100.00
72055;BME280;59936;51.490;5.436;2022-10-16T21:43:21;101366.09;;;11.55;100.00
72055;BME280;59936;51.490;5.436;2022-10-16T21:48:22;101360.97;;;11.52;100.00
72055;BME280;59936;51.490;5.436;2022-10-16T21:53:25;101354.06;;;11.51;100.00
72055;BME280;59936;51.490;5.436;2022-10-16T21:58:29;101351.66;;;11.45;100.00
72055;BME280;59936;51.490;5.436;2022-10-16T22:03:32;101347.72;;;11.35;100.00
72055;BME280;59936;51.490;5.436;2022-10-16T22:08:36;101355.41;;;11.38;100.00
72055;BME280;59936;51.490;5.436;2022-10-16T22:13:38;101364.66;;;11.46;100.00
72055;BME280;59936;51.490;5.436;2022-10-16T22:18:41;101351.50;;;11.72;100.00
72055;BME280;59936;51.490;5.436;2022-10-16T22:23:44;101353.75;;;11.81;100.00
72055;BME280;59936;51.490;5.436;2022-10-16T22:28:45;101358.88;;;11.84;100.00
72055;BME280;59936;51.490;5.436;2022-10-16T22:33:47;101373.53;;;11.89;100.00
72055;BME280;59936;51.490;5.436;2022-10-16T22:38:56;101377.00;;;11.89;100.00
72055;BME280;59936;51.490;5.436;2022-10-16T22:43:58;101367.03;;;11.99;100.00
72055;BME280;59936;51.490;5.436;2022-10-16T22:49:01;101368.66;;;12.02;100.00
72055;BME280;59936;51.490;5.436;2022-10-16T22:54:04;101355.59;;;12.02;100.00
72055;BME280;59936;51.490;5.436;2022-10-16T22:59:08;101343.38;;;12.02;100.00
72055;BME280;59936;51.490;5.436;2022-10-16T23:04:10;101341.25;;;11.90;100.00
72055;BME280;59936;51.490;5.436;2022-10-16T23:09:13;101320.78;;;11.77;100.00
72055;BME280;59936;51.490;5.436;2022-10-16T23:14:18;101324.09;;;11.82;100.00
72055;BME280;59936;51.490;5.436;2022-10-16T23:19:21;101324.22;;;11.79;100.00
72055;BME280;59936;51.490;5.436;2022-10-16T23:24:24;101317.28;;;11.78;100.00
72055;BME280;59936;51.490;5.436;2022-10-16T23:29:26;101314.25;;;11.67;100.00
72055;BME280;59936;51.490;5.436;2022-10-16T23:34:28;101312.53;;;11.66;100.00
72055;BME280;59936;51.490;5.436;2022-10-16T23:39:31;101328.63;;;11.77;100.00
72055;BME280;59936;51.490;5.436;2022-10-16T23:44:33;101332.97;;;11.78;100.00
72055;BME280;59936;51.490;5.436;2022-10-16T23:49:35;101318.72;;;11.85;100.00
72055;BME280;59936;51.490;5.436;2022-10-16T23:54:38;101319.34;;;12.15;100.00
72055;BME280;59936;51.490;5.436;2022-10-16T23:59:41;101325.75;;;12.07;100.00
